createdAt,value
2019-01-15T00:00:13.183Z,0.79
2019-01-15T00:03:05.470Z,0.58
2019-01-15T00:05:48.482Z,0.83
2019-01-15T00:08:39.027Z,0.92
2019-01-15T00:11:21.918Z,0.93
2019-01-15T00:14:12.453Z,0.88
2019-01-15T00:16:55.854Z,0.74
2019-01-15T00:19:38.609Z,0.67
2019-01-15T00:22:29.110Z,0.66
2019-01-15T00:25:12.037Z,0.62
2019-01-15T00:28:02.534Z,0.74
2019-01-15T00:30:46.115Z,0.72
2019-01-15T00:33:36.616Z,0.86
2019-01-15T00:36:19.793Z,0.92
2019-01-15T00:39:10.313Z,0.75
2019-01-15T00:41:53.842Z,0.76
2019-01-15T00:44:44.375Z,0.60
2019-01-15T00:47:33.525Z,0.80
2019-01-15T00:50:24.056Z,0.72
2019-01-15T00:53:05.758Z,0.73
2019-01-15T00:55:56.272Z,0.85
2019-01-15T00:58:39.803Z,0.56
2019-01-15T01:01:30.223Z,0.82
2019-01-15T01:04:13.205Z,1.01
2019-01-15T01:10:26.103Z,0.66
2019-01-15T01:13:16.740Z,0.62
2019-01-15T01:16:00.238Z,0.77
2019-01-15T01:18:50.883Z,0.69
2019-01-15T01:21:34.158Z,0.71
2019-01-15T01:24:24.671Z,0.58
2019-01-15T01:27:06.223Z,0.80
2019-01-15T01:29:56.746Z,0.82
2019-01-15T01:32:40.056Z,0.84
2019-01-15T01:35:30.574Z,0.85
2019-01-15T01:38:14.023Z,0.90
2019-01-15T01:41:04.585Z,0.89
2019-01-15T01:43:47.355Z,0.76
2019-01-15T01:46:40.040Z,0.79
2019-01-15T01:49:21.717Z,0.75
2019-01-15T01:52:12.239Z,0.76
2019-01-15T01:54:55.710Z,0.76
2019-01-15T02:01:08.876Z,0.58
2019-01-15T02:03:51.828Z,0.77
2019-01-15T02:06:35.058Z,0.94
2019-01-15T02:09:25.620Z,0.70
2019-01-15T02:12:08.995Z,0.77
2019-01-15T02:14:59.507Z,0.92
2019-01-15T02:17:42.997Z,0.85
2019-01-15T02:20:34.478Z,0.72
2019-01-15T02:23:18.039Z,0.84
2019-01-15T02:26:08.548Z,0.79
2019-01-15T02:28:51.348Z,0.66
2019-01-15T02:31:41.884Z,0.75
2019-01-15T02:34:24.687Z,0.66
2019-01-15T02:37:15.201Z,0.71
2019-01-15T02:39:58.237Z,0.74
2019-01-15T02:42:48.758Z,0.68
2019-01-15T02:45:32.087Z,0.64
2019-01-15T02:48:22.621Z,0.48
2019-01-15T02:51:11.161Z,0.70
2019-01-15T02:54:01.681Z,0.74
2019-01-15T02:56:44.563Z,0.75
2019-01-15T03:02:58.191Z,0.80
2019-01-15T03:05:48.706Z,0.78
2019-01-15T03:08:30.381Z,0.94
2019-01-15T03:11:20.895Z,0.69
2019-01-15T03:14:04.281Z,0.77
2019-01-15T03:16:54.789Z,0.64
2019-01-15T03:19:38.253Z,0.73
2019-01-15T03:22:29.125Z,0.62
2019-01-15T03:25:12.681Z,0.80
2019-01-15T03:28:03.192Z,0.84
2019-01-15T03:30:46.373Z,0.88
2019-01-15T03:33:36.909Z,0.79
2019-01-15T03:36:19.681Z,0.76
2019-01-15T03:39:10.751Z,0.72
2019-01-15T03:41:54.143Z,0.80
2019-01-15T03:44:44.651Z,0.75
2019-01-15T03:47:29.540Z,0.66
2019-01-15T03:50:20.254Z,0.59
2019-01-15T03:53:03.578Z,0.65
2019-01-15T03:55:47.203Z,0.72
2019-01-15T03:58:37.706Z,0.80
2019-01-15T04:01:21.209Z,0.94
2019-01-15T04:04:11.813Z,0.80
2019-01-15T04:06:54.892Z,0.92
2019-01-15T04:10:04.558Z,0.85
2019-01-15T04:12:46.200Z,1.06
2019-01-15T04:15:38.334Z,0.99
2019-01-15T04:18:21.656Z,1.10
2019-01-15T04:21:12.192Z,0.96
2019-01-15T04:23:55.383Z,1.03
2019-01-15T04:26:40.958Z,1.05
2019-01-15T04:29:31.466Z,0.86
2019-01-15T04:32:14.911Z,0.94
2019-01-15T04:35:06.774Z,1.01
2019-01-15T04:37:50.387Z,0.91
2019-01-15T04:40:40.888Z,0.96
2019-01-15T04:43:24.464Z,1.13
2019-01-15T04:46:15.247Z,1.01
2019-01-15T04:48:58.175Z,1.03
2019-01-15T04:51:48.693Z,1.03
2019-01-15T04:54:32.080Z,0.92
2019-01-15T04:57:15.836Z,0.94
2019-01-15T05:00:09.048Z,1.12
2019-01-15T05:02:50.685Z,0.85
2019-01-15T05:05:41.215Z,0.89
2019-01-15T05:08:24.308Z,0.98
2019-01-15T05:11:15.358Z,0.87
2019-01-15T05:13:58.458Z,0.86
2019-01-15T05:19:56.260Z,0.63
2019-01-15T05:22:46.780Z,0.87
2019-01-15T05:25:29.987Z,0.73
2019-01-15T05:28:20.504Z,0.79
2019-01-15T05:31:03.802Z,0.90
2019-01-15T05:33:54.322Z,0.90
2019-01-15T05:36:37.807Z,0.84
2019-01-15T05:39:28.320Z,0.92
2019-01-15T05:42:11.672Z,1.01
2019-01-15T05:51:39.326Z,0.58
2019-01-15T05:54:29.855Z,0.78
2019-01-15T05:57:11.399Z,0.83
2019-01-15T05:59:54.421Z,0.96
2019-01-15T06:02:44.932Z,0.97
2019-01-15T06:05:27.636Z,1.03
2019-01-15T06:08:18.072Z,0.93
2019-01-15T06:11:01.333Z,0.89
2019-01-15T06:13:44.452Z,0.64
2019-01-15T06:19:44.302Z,0.92
2019-01-15T06:22:34.838Z,0.78
2019-01-15T06:25:18.376Z,1.01
2019-01-15T06:28:08.860Z,1.01
2019-01-15T06:30:52.106Z,0.84
2019-01-15T06:33:43.074Z,0.90
2019-01-15T06:36:26.668Z,0.90
2019-01-15T06:39:55.895Z,0.85
2019-01-15T06:42:39.239Z,0.98
2019-01-15T06:45:29.809Z,0.89
2019-01-15T06:48:12.714Z,0.71
2019-01-15T06:51:22.653Z,0.93
2019-01-15T06:54:04.232Z,0.73
2019-01-15T06:56:54.752Z,0.79
2019-01-15T06:59:38.135Z,0.76
2019-01-15T07:02:28.644Z,0.81
2019-01-15T07:05:11.785Z,0.82
2019-01-15T07:08:02.284Z,0.88
2019-01-15T07:10:45.167Z,0.85
2019-01-15T07:13:35.691Z,0.98
2019-01-15T07:16:19.147Z,0.86
2019-01-15T07:19:09.682Z,0.73
2019-01-15T07:21:52.691Z,0.97
2019-01-15T07:24:43.199Z,0.84
2019-01-15T07:27:26.339Z,1.03
2019-01-15T07:30:19.775Z,0.88
2019-01-15T07:33:01.240Z,0.82
2019-01-15T07:35:51.784Z,1.07
2019-01-15T07:38:33.370Z,1.18
2019-01-15T07:41:23.891Z,1.10
2019-01-15T07:44:07.021Z,1.02
2019-01-15T07:46:57.561Z,1.07
2019-01-15T07:49:40.699Z,1.22
2019-01-15T07:52:31.444Z,1.15
2019-01-15T07:55:15.579Z,1.07
2019-01-15T07:58:07.189Z,1.04
2019-01-15T08:00:50.418Z,1.30
2019-01-15T08:03:33.846Z,1.04
2019-01-15T08:06:24.379Z,1.19
2019-01-15T08:09:09.051Z,1.00
2019-01-15T08:11:52.469Z,1.35
2019-01-15T08:14:43.221Z,1.26
2019-01-15T08:17:26.711Z,1.16
2019-01-15T08:20:17.234Z,1.20
2019-01-15T08:23:00.366Z,1.29
2019-01-15T08:25:50.939Z,1.22
2019-01-15T08:28:32.483Z,1.25
2019-01-15T08:34:14.698Z,1.60
2019-01-15T08:36:58.262Z,1.47
2019-01-15T08:39:48.780Z,1.43
2019-01-15T08:42:38.023Z,1.38
2019-01-15T08:45:28.563Z,1.34
2019-01-15T08:48:19.877Z,1.41
2019-01-15T08:51:04.037Z,1.37
2019-01-15T08:53:47.877Z,1.52
2019-01-15T08:56:38.429Z,1.31
2019-01-15T08:59:21.962Z,1.38
2019-01-15T09:02:12.476Z,1.46
2019-01-15T09:04:54.018Z,1.47
2019-01-15T09:07:44.759Z,1.63
2019-01-15T09:10:28.127Z,1.54
2019-01-15T09:13:18.677Z,1.56
2019-01-15T09:16:02.039Z,1.48
2019-01-15T09:18:52.557Z,1.58
2019-01-15T09:21:54.502Z,1.51
2019-01-15T09:24:45.111Z,1.54
2019-01-15T09:27:28.552Z,1.52
2019-01-15T09:30:22.074Z,1.78
2019-01-15T09:33:05.340Z,1.72
2019-01-15T09:35:49.520Z,1.74
2019-01-15T09:38:40.123Z,1.63
2019-01-15T09:41:30.157Z,1.65
2019-01-15T09:44:20.690Z,1.69
2019-01-15T09:47:04.037Z,1.79
2019-01-15T09:49:55.448Z,1.89
2019-01-15T09:52:38.672Z,1.80
2019-01-15T09:55:22.547Z,1.87
2019-01-15T09:58:14.131Z,1.97
2019-01-15T10:00:55.725Z,1.89
2019-01-15T10:03:46.278Z,1.86
2019-01-15T10:06:29.791Z,1.86
2019-01-15T10:09:20.338Z,1.86
2019-01-15T10:12:03.912Z,1.96
2019-01-15T10:14:54.470Z,1.89
2019-01-15T10:17:38.101Z,2.02
2019-01-15T10:20:28.811Z,2.11
2019-01-15T10:23:12.050Z,2.02
2019-01-15T10:26:02.594Z,2.09
2019-01-15T10:28:46.251Z,1.86
2019-01-15T10:32:15.281Z,2.13
2019-01-15T10:34:57.536Z,2.05
2019-01-15T10:37:48.346Z,2.40
2019-01-15T10:40:31.442Z,2.33
2019-01-15T10:43:22.029Z,2.37
2019-01-15T10:46:05.708Z,2.36
2019-01-15T10:48:58.917Z,2.31
2019-01-15T10:51:42.174Z,2.30
2019-01-15T10:54:32.943Z,2.50
2019-01-15T10:57:16.412Z,2.53
2019-01-15T10:59:59.943Z,2.53
2019-01-15T11:02:50.497Z,2.67
2019-01-15T11:05:33.781Z,2.78
2019-01-15T11:08:17.388Z,2.75
2019-01-15T11:11:03.351Z,2.71
2019-01-15T11:13:53.890Z,2.81
2019-01-15T11:16:37.121Z,2.86
2019-01-15T11:19:28.645Z,2.94
2019-01-15T11:22:12.129Z,3.02
2019-01-15T11:25:02.852Z,3.09
2019-01-15T11:27:45.704Z,3.23
2019-01-15T11:30:36.238Z,3.17
2019-01-15T11:33:20.786Z,3.10
2019-01-15T11:36:11.385Z,3.15
2019-01-15T11:38:54.639Z,3.14
2019-01-15T11:41:45.175Z,3.39
2019-01-15T11:44:48.987Z,3.23
2019-01-15T11:47:39.545Z,3.31
2019-01-15T11:50:22.394Z,3.36
2019-01-15T11:53:12.940Z,3.31
2019-01-15T11:55:56.352Z,3.31
2019-01-15T12:02:22.344Z,3.33
2019-01-15T12:05:34.288Z,3.41
2019-01-15T12:08:36.606Z,3.37
2019-01-15T12:11:45.971Z,3.39
2019-01-15T12:14:47.888Z,3.44
2019-01-15T12:17:57.381Z,3.27
2019-01-15T12:20:57.806Z,3.11
2019-01-15T12:24:05.829Z,3.44
2019-01-15T12:27:15.546Z,3.29
2019-01-15T12:30:17.622Z,3.24
2019-01-15T12:33:27.399Z,3.45
2019-01-15T12:36:25.273Z,3.20
2019-01-15T12:39:35.754Z,3.15
2019-01-15T12:42:37.994Z,3.33
2019-01-15T12:45:47.667Z,3.49
2019-01-15T12:48:44.913Z,3.43
2019-01-15T12:51:55.092Z,3.67
2019-01-15T12:54:57.525Z,3.46
2019-01-15T12:58:06.962Z,3.60
2019-01-15T13:01:11.388Z,3.57
2019-01-15T13:04:20.850Z,3.86
2019-01-15T13:07:22.507Z,3.91
2019-01-15T13:10:31.923Z,3.68
2019-01-15T13:13:33.695Z,3.63
2019-01-15T13:16:43.095Z,3.91
2019-01-15T13:19:46.464Z,3.62
2019-01-15T13:22:51.142Z,3.83
2019-01-15T13:25:53.040Z,3.96
2019-01-15T13:29:02.555Z,3.67
2019-01-15T13:32:04.652Z,3.71
2019-01-15T13:35:07.870Z,3.60
2019-01-15T13:38:17.243Z,3.68
2019-01-15T13:41:19.273Z,3.49
2019-01-15T13:44:28.677Z,3.66
2019-01-15T13:47:35.179Z,3.59
2019-01-15T13:50:36.205Z,3.47
2019-01-15T13:53:45.700Z,3.56
2019-01-15T13:56:47.474Z,3.51
2019-01-15T13:59:56.890Z,3.46
2019-01-15T14:02:49.519Z,3.52
2019-01-15T14:05:51.367Z,3.46
2019-01-15T14:09:00.758Z,3.42
2019-01-15T14:15:30.175Z,3.43
2019-01-15T14:18:38.410Z,3.34
2019-01-15T14:21:40.627Z,3.51
2019-01-15T14:24:50.088Z,3.43
2019-01-15T14:27:55.364Z,3.45
2019-01-15T14:31:05.552Z,3.34
2019-01-15T14:34:13.968Z,3.22
2019-01-15T14:37:23.439Z,3.17
2019-01-15T14:40:17.069Z,3.14
2019-01-15T14:43:26.507Z,3.14
2019-01-15T14:46:28.598Z,3.22
2019-01-15T14:49:38.043Z,3.35
2019-01-15T14:52:30.589Z,3.26
2019-01-15T14:55:39.989Z,3.18
2019-01-15T14:58:43.329Z,3.26
2019-01-15T15:01:52.747Z,3.29
2019-01-15T15:05:00.605Z,3.09
2019-01-15T15:08:10.118Z,3.05
2019-01-15T15:11:18.586Z,3.20
2019-01-15T15:14:47.039Z,3.20
2019-01-15T15:17:51.826Z,3.14
2019-01-15T15:21:01.260Z,3.13
2019-01-15T15:24:02.944Z,3.12
2019-01-15T15:27:12.362Z,3.11
2019-01-15T15:30:13.924Z,2.99
2019-01-15T15:33:23.481Z,3.00
2019-01-15T15:36:30.644Z,3.10
2019-01-15T15:39:40.067Z,2.99
2019-01-15T15:42:48.010Z,2.95
2019-01-15T15:45:57.416Z,3.05
2019-01-15T15:49:00.084Z,3.16
2019-01-15T15:52:08.012Z,3.05
2019-01-15T15:55:10.348Z,3.01
2019-01-15T15:58:11.540Z,3.05
2019-01-15T16:01:13.856Z,2.96
2019-01-15T16:04:16.345Z,3.00
2019-01-15T16:07:10.595Z,2.81
2019-01-15T16:10:15.552Z,2.92
2019-01-15T16:13:13.793Z,3.14
2019-01-15T16:16:08.117Z,3.03
2019-01-15T16:19:11.292Z,2.88
2019-01-15T16:22:20.699Z,2.81
2019-01-15T16:25:22.566Z,2.85
2019-01-15T16:28:31.986Z,2.95
2019-01-15T16:31:39.738Z,3.00
2019-01-15T16:34:41.970Z,3.07
2019-01-15T16:37:51.372Z,2.98
2019-01-15T16:40:52.958Z,2.92
2019-01-15T16:44:02.365Z,2.88
2019-01-15T16:47:04.625Z,2.88
2019-01-15T16:50:11.310Z,2.87
2019-01-15T16:53:18.118Z,3.00
2019-01-15T16:56:20.539Z,3.00
2019-01-15T16:59:29.984Z,2.92
2019-01-15T17:02:32.387Z,2.84
2019-01-15T17:05:34.622Z,2.91
2019-01-15T17:08:44.015Z,2.90
2019-01-15T17:11:45.904Z,2.94
2019-01-15T17:14:49.419Z,3.09
2019-01-15T17:17:48.396Z,3.09
2019-01-15T17:20:38.590Z,2.98
2019-01-15T17:23:48.182Z,3.03
2019-01-15T17:26:50.553Z,2.98
2019-01-15T17:30:00.089Z,2.90
2019-01-15T17:33:02.521Z,2.78
2019-01-15T17:36:04.209Z,2.86
2019-01-15T17:39:14.588Z,3.03
2019-01-15T17:42:16.998Z,2.93
2019-01-15T17:45:27.255Z,2.88
2019-01-15T17:48:32.207Z,2.89
2019-01-15T17:51:41.595Z,3.07
2019-01-15T17:54:43.967Z,2.80
2019-01-15T17:57:53.363Z,2.96
2019-01-15T18:00:55.511Z,2.98
2019-01-15T18:04:04.947Z,3.09
2019-01-15T18:07:14.350Z,3.00
2019-01-15T18:10:16.487Z,2.98
2019-01-15T18:13:25.882Z,2.98
2019-01-15T18:16:28.050Z,2.94
2019-01-15T18:19:37.403Z,2.97
2019-01-15T18:22:37.884Z,3.11
2019-01-15T18:25:47.606Z,3.02
2019-01-15T18:28:55.929Z,3.01
2019-01-15T18:32:05.314Z,2.96
2019-01-15T18:34:58.204Z,2.92
2019-01-15T18:38:07.566Z,2.86
2019-01-15T18:41:09.860Z,2.88
2019-01-15T18:44:19.282Z,2.89
2019-01-15T18:47:21.261Z,2.90
2019-01-15T18:50:30.754Z,2.88
2019-01-15T18:53:33.075Z,2.91
2019-01-15T18:56:42.520Z,2.96
2019-01-15T18:59:44.860Z,3.10
2019-01-15T19:02:54.296Z,3.10
2019-01-15T19:05:56.677Z,2.98
2019-01-15T19:09:06.096Z,3.06
2019-01-15T19:12:14.341Z,2.89
2019-01-15T19:15:44.329Z,2.78
2019-01-15T19:18:46.619Z,2.87
2019-01-15T19:21:56.042Z,2.87
2019-01-15T19:24:58.474Z,3.06
2019-01-15T19:28:07.879Z,3.10
2019-01-15T19:31:11.143Z,2.93
2019-01-15T19:34:20.638Z,2.84
2019-01-15T19:37:22.888Z,2.76
2019-01-15T19:40:32.323Z,2.65
2019-01-15T19:43:32.772Z,2.57
2019-01-15T19:46:42.268Z,2.50
2019-01-15T19:49:44.271Z,2.65
2019-01-15T19:52:53.707Z,2.56
2019-01-15T19:55:55.725Z,2.52
2019-01-15T19:58:56.849Z,2.59
2019-01-15T20:01:58.530Z,2.49
2019-01-15T20:05:00.809Z,2.40
2019-01-15T20:08:11.833Z,2.54
2019-01-15T20:11:14.497Z,2.46
2019-01-15T20:14:23.896Z,2.74
2019-01-15T20:17:26.129Z,2.64
2019-01-15T20:20:36.532Z,2.69
2019-01-15T20:23:38.575Z,2.61
2019-01-15T20:26:47.980Z,2.62
2019-01-15T20:29:50.290Z,2.67
2019-01-15T20:32:59.645Z,2.44
2019-01-15T20:36:01.894Z,2.57
2019-01-15T20:39:11.292Z,2.55
2019-01-15T20:42:16.651Z,2.56
2019-01-15T20:45:46.767Z,2.48
2019-01-15T20:48:47.932Z,2.50
2019-01-15T20:52:16.389Z,2.46
2019-01-15T20:55:18.266Z,2.38
2019-01-15T20:58:19.875Z,2.14
2019-01-15T21:01:29.247Z,2.39
2019-01-15T21:04:31.367Z,2.38
2019-01-15T21:07:33.512Z,2.20
2019-01-15T21:10:42.906Z,2.10
2019-01-15T21:13:45.181Z,2.16
2019-01-15T21:16:46.916Z,2.17
2019-01-15T21:19:56.306Z,2.29
2019-01-15T21:22:58.944Z,2.24
2019-01-15T21:26:08.399Z,2.12
2019-01-15T21:29:10.321Z,2.21
2019-01-15T21:32:19.761Z,2.05
2019-01-15T21:35:21.631Z,1.99
2019-01-15T21:38:31.031Z,2.05
2019-01-15T21:41:30.864Z,1.93
2019-01-15T21:44:40.256Z,1.86
2019-01-15T21:47:40.003Z,2.07
2019-01-15T21:50:49.448Z,2.22
2019-01-15T21:53:51.535Z,2.13
2019-01-15T21:56:56.484Z,1.93
2019-01-15T21:59:56.861Z,1.89
2019-01-15T22:03:06.262Z,2.10
2019-01-15T22:06:09.325Z,1.90
2019-01-15T22:09:11.727Z,1.91
2019-01-15T22:12:13.767Z,1.83
2019-01-15T22:15:09.583Z,1.57
2019-01-15T22:18:11.875Z,1.81
2019-01-15T22:21:21.285Z,1.88
2019-01-15T22:24:23.412Z,1.77
2019-01-15T22:27:25.793Z,1.85
2019-01-15T22:30:28.158Z,1.80
2019-01-15T22:33:37.558Z,1.73
2019-01-15T22:36:39.254Z,1.71
2019-01-15T22:39:48.656Z,1.55
2019-01-15T22:42:50.414Z,1.58
2019-01-15T22:46:01.960Z,1.60
2019-01-15T22:49:04.095Z,1.54
2019-01-15T22:52:08.273Z,1.64
2019-01-15T22:55:10.497Z,1.54
2019-01-15T22:58:20.070Z,1.45
2019-01-15T23:01:23.964Z,1.49
2019-01-15T23:04:33.366Z,1.44
2019-01-15T23:07:36.820Z,1.47
2019-01-15T23:10:46.222Z,1.60
2019-01-15T23:13:46.927Z,1.51
2019-01-15T23:16:56.327Z,1.54
2019-01-15T23:20:01.678Z,1.46
2019-01-15T23:23:11.115Z,1.31
2019-01-15T23:26:13.333Z,1.42
2019-01-15T23:29:23.154Z,1.47
2019-01-15T23:32:28.195Z,1.38
2019-01-15T23:35:37.601Z,1.41
2019-01-15T23:38:35.199Z,1.34
2019-01-15T23:41:44.694Z,1.26
2019-01-15T23:44:39.136Z,1.27
2019-01-15T23:47:48.499Z,1.24
2019-01-15T23:50:42.560Z,1.23
2019-01-15T23:53:51.946Z,1.33
2019-01-15T23:56:52.349Z,1.30
